Terminal Aerodrome Forecast
Issued by NWS Jackson, MS

Home | Current Version | Previous Version | Text Only | Print | Product List | Glossary On
Versions: 1 2 3 4 5 6 7 8 9 10 11 12 13 14 15 16 17 18 19 20
000
FTUS44 KJAN 010500
TAFGWO
TAF
KGWO 010536Z 0106/0206 18005KT P6SM FEW070 SCT120
     FM011100 18003KT 6SM BR SCT007 BKN015
     FM011530 19010KT P6SM SCT040
     FM020100 17006KT P6SM SKC=

USA.gov is the U.S. government's official web portal to all federal, state and local government web resources and services.